sensor_id;sensor_type;location;lat;lon;timestamp;pressure;altitude;pressure_sealevel;temperature;humidity
21980;BME280;11154;48.558;9.234;2023-02-20T00:00:47;98648.63;;;11.86;82.52
21980;BME280;11154;48.558;9.234;2023-02-20T00:02:49;98653.94;;;11.86;82.40
21980;BME280;11154;48.558;9.234;2023-02-20T00:04:51;98646.09;;;11.84;82.37
21980;BME280;11154;48.558;9.234;2023-02-20T00:06:52;98655.22;;;11.82;82.80
21980;BME280;11154;48.558;9.234;2023-02-20T00:08:54;98651.72;;;11.81;82.72
21980;BME280;11154;48.558;9.234;2023-02-20T00:10:55;98645.81;;;11.78;82.97
21980;BME280;11154;48.558;9.234;2023-02-20T00:12:57;98662.66;;;11.78;83.00
21980;BME280;11154;48.558;9.234;2023-02-20T00:15:00;98659.00;;;11.79;83.11
21980;BME280;11154;48.558;9.234;2023-02-20T00:17:02;98659.13;;;11.78;83.10
21980;BME280;11154;48.558;9.234;2023-02-20T00:19:03;98649.47;;;11.77;82.88
21980;BME280;11154;48.558;9.234;2023-02-20T00:21:05;98662.66;;;11.78;82.73
21980;BME280;11154;48.558;9.234;2023-02-20T00:23:07;98656.47;;;11.78;83.14
21980;BME280;11154;48.558;9.234;2023-02-20T00:25:09;98657.44;;;11.77;83.13
21980;BME280;11154;48.558;9.234;2023-02-20T00:27:11;98657.59;;;11.75;83.12
21980;BME280;11154;48.558;9.234;2023-02-20T00:29:14;98658.47;;;11.76;83.23
21980;BME280;11154;48.558;9.234;2023-02-20T00:31:17;98656.78;;;11.75;82.66
21980;BME280;11154;48.558;9.234;2023-02-20T00:33:19;98657.75;;;11.74;82.88
21980;BME280;11154;48.558;9.234;2023-02-20T00:35:21;98642.75;;;11.73;82.83
21980;BME280;11154;48.558;9.234;2023-02-20T00:37:23;98644.44;;;11.74;82.74
21980;BME280;11154;48.558;9.234;2023-02-20T00:39:25;98635.72;;;11.72;82.55
21980;BME280;11154;48.558;9.234;2023-02-20T00:41:26;98646.38;;;11.72;82.39
21980;BME280;11154;48.558;9.234;2023-02-20T00:43:28;98644.44;;;11.74;82.21
21980;BME280;11154;48.558;9.234;2023-02-20T00:45:30;98641.75;;;11.74;82.13
21980;BME280;11154;48.558;9.234;2023-02-20T00:47:33;98640.78;;;11.75;82.13
21980;BME280;11154;48.558;9.234;2023-02-20T00:49:35;98647.09;;;11.74;81.43
21980;BME280;11154;48.558;9.234;2023-02-20T00:51:37;98658.72;;;11.73;81.55
21980;BME280;11154;48.558;9.234;2023-02-20T00:53:39;98648.91;;;11.73;81.94
21980;BME280;11154;48.558;9.234;2023-02-20T00:55:40;98656.88;;;11.73;81.26
21980;BME280;11154;48.558;9.234;2023-02-20T00:57:42;98672.75;;;11.75;81.74
21980;BME280;11154;48.558;9.234;2023-02-20T00:59:44;98675.44;;;11.75;81.84
21980;BME280;11154;48.558;9.234;2023-02-20T01:01:45;98678.91;;;11.75;81.80
21980;BME280;11154;48.558;9.234;2023-02-20T01:03:48;98678.91;;;11.75;81.78
21980;BME280;11154;48.558;9.234;2023-02-20T01:05:50;98684.25;;;11.75;81.63
21980;BME280;11154;48.558;9.234;2023-02-20T01:07:52;98690.44;;;11.76;81.80
21980;BME280;11154;48.558;9.234;2023-02-20T01:09:54;98678.78;;;11.77;81.72
21980;BME280;11154;48.558;9.234;2023-02-20T01:11:56;98688.44;;;11.78;81.50
21980;BME280;11154;48.558;9.234;2023-02-20T01:13:58;98684.09;;;11.77;81.73
21980;BME280;11154;48.558;9.234;2023-02-20T01:15:59;98681.16;;;11.80;81.70
21980;BME280;11154;48.558;9.234;2023-02-20T01:18:01;98676.66;;;11.80;81.22
21980;BME280;11154;48.558;9.234;2023-02-20T01:20:07;98678.22;;;11.83;81.30
21980;BME280;11154;48.558;9.234;2023-02-20T01:22:09;98658.72;;;11.82;81.29
21980;BME280;11154;48.558;9.234;2023-02-20T01:24:11;98666.56;;;11.84;80.99
21980;BME280;11154;48.558;9.234;2023-02-20T01:26:12;98665.19;;;11.80;81.03
21980;BME280;11154;48.558;9.234;2023-02-20T01:28:14;98668.41;;;11.83;80.81
21980;BME280;11154;48.558;9.234;2023-02-20T01:30:16;98671.91;;;11.84;81.05
21980;BME280;11154;48.558;9.234;2023-02-20T01:32:17;98669.94;;;11.86;80.74
21980;BME280;11154;48.558;9.234;2023-02-20T01:34:19;98658.31;;;11.87;80.69
21980;BME280;11154;48.558;9.234;2023-02-20T01:36:22;98659.28;;;11.86;80.24
21980;BME280;11154;48.558;9.234;2023-02-20T01:38:25;98657.44;;;11.86;80.77
21980;BME280;11154;48.558;9.234;2023-02-20T01:40:27;98657.59;;;11.85;80.27
21980;BME280;11154;48.558;9.234;2023-02-20T01:42:30;98653.13;;;11.85;80.61
21980;BME280;11154;48.558;9.234;2023-02-20T01:44:35;98659.28;;;11.86;80.47
21980;BME280;11154;48.558;9.234;2023-02-20T01:46:47;98654.22;;;11.83;80.24
21980;BME280;11154;48.558;9.234;2023-02-20T01:48:50;98644.13;;;11.77;80.41
21980;BME280;11154;48.558;9.234;2023-02-20T01:50:56;98660.13;;;11.77;79.73
21980;BME280;11154;48.558;9.234;2023-02-20T01:53:03;98644.84;;;11.79;81.23
21980;BME280;11154;48.558;9.234;2023-02-20T01:55:09;98633.91;;;11.82;82.12
21980;BME280;11154;48.558;9.234;2023-02-20T01:57:14;98634.19;;;11.79;80.10
21980;BME280;11154;48.558;9.234;2023-02-20T01:59:19;98644.13;;;11.77;78.74
21980;BME280;11154;48.558;9.234;2023-02-20T02:01:22;98603.34;;;11.67;77.60
21980;BME280;11154;48.558;9.234;2023-02-20T02:03:25;98607.06;;;10.50;84.18
21980;BME280;11154;48.558;9.234;2023-02-20T02:05:30;98604.50;;;10.09;87.27
21980;BME280;11154;48.558;9.234;2023-02-20T02:07:33;98606.16;;;10.01;89.40
21980;BME280;11154;48.558;9.234;2023-02-20T02:09:39;98594.56;;;9.91;89.76
21980;BME280;11154;48.558;9.234;2023-02-20T02:11:43;98600.56;;;9.83;91.58
21980;BME280;11154;48.558;9.234;2023-02-20T02:13:46;98590.25;;;9.69;90.69
21980;BME280;11154;48.558;9.234;2023-02-20T02:15:50;98593.63;;;9.71;92.52
21980;BME280;11154;48.558;9.234;2023-02-20T02:18:07;98598.94;;;9.71;92.70
21980;BME280;11154;48.558;9.234;2023-02-20T02:23:09;98593.94;;;9.57;92.95
21980;BME280;11154;48.558;9.234;2023-02-20T02:25:30;98595.28;;;9.52;93.10
21980;BME280;11154;48.558;9.234;2023-02-20T02:28:06;98587.59;;;9.49;93.01
21980;BME280;11154;48.558;9.234;2023-02-20T02:30:46;98585.06;;;9.47;93.64
21980;BME280;11154;48.558;9.234;2023-02-20T02:38:18;98568.38;;;9.36;94.13
21980;BME280;11154;48.558;9.234;2023-02-20T02:40:27;98575.22;;;9.38;93.99
21980;BME280;11154;48.558;9.234;2023-02-20T02:42:36;98576.31;;;9.36;94.58
21980;BME280;11154;48.558;9.234;2023-02-20T02:44:46;98569.09;;;9.58;100.00
21980;BME280;11154;48.558;9.234;2023-02-20T02:46:55;98566.88;;;9.43;96.67
21980;BME280;11154;48.558;9.234;2023-02-20T02:49:02;98567.63;;;9.34;94.86
21980;BME280;11154;48.558;9.234;2023-02-20T02:51:11;98567.31;;;9.28;94.33
21980;BME280;11154;48.558;9.234;2023-02-20T02:53:17;98571.47;;;9.21;94.64
21980;BME280;11154;48.558;9.234;2023-02-20T02:55:21;98559.97;;;9.20;96.06
21980;BME280;11154;48.558;9.234;2023-02-20T02:57:25;98581.22;;;9.20;95.95
21980;BME280;11154;48.558;9.234;2023-02-20T02:59:30;98588.34;;;9.20;96.15
21980;BME280;11154;48.558;9.234;2023-02-20T03:01:37;98592.09;;;9.17;96.50
21980;BME280;11154;48.558;9.234;2023-02-20T03:03:43;98589.53;;;9.16;96.96
21980;BME280;11154;48.558;9.234;2023-02-20T03:05:48;98585.22;;;9.15;97.09
21980;BME280;11154;48.558;9.234;2023-02-20T03:07:53;98583.16;;;9.18;97.29
21980;BME280;11154;48.558;9.234;2023-02-20T03:10:01;98591.00;;;9.20;97.54
21980;BME280;11154;48.558;9.234;2023-02-20T03:12:05;98584.59;;;9.22;97.43
21980;BME280;11154;48.558;9.234;2023-02-20T03:14:10;98587.25;;;9.22;97.63
21980;BME280;11154;48.558;9.234;2023-02-20T03:16:34;98589.63;;;9.25;97.12
21980;BME280;11154;48.558;9.234;2023-02-20T03:18:41;98570.94;;;9.27;96.65
21980;BME280;11154;48.558;9.234;2023-02-20T03:20:45;98580.59;;;9.28;96.85
21980;BME280;11154;48.558;9.234;2023-02-20T03:22:51;98581.28;;;9.30;96.03
21980;BME280;11154;48.558;9.234;2023-02-20T03:24:55;98581.28;;;9.30;96.20
21980;BME280;11154;48.558;9.234;2023-02-20T03:27:00;98571.25;;;9.33;95.48
21980;BME280;11154;48.558;9.234;2023-02-20T03:29:07;98579.09;;;9.34;95.55
21980;BME280;11154;48.558;9.234;2023-02-20T03:31:15;98577.53;;;9.32;95.65
21980;BME280;11154;48.558;9.234;2023-02-20T03:33:20;98576.69;;;9.32;95.50
21980;BME280;11154;48.558;9.234;2023-02-20T03:35:42;98575.75;;;9.32;95.19
21980;BME280;11154;48.558;9.234;2023-02-20T03:38:05;98577.66;;;9.31;95.44
21980;BME280;11154;48.558;9.234;2023-02-20T03:40:26;98577.66;;;9.31;95.14
21980;BME280;11154;48.558;9.234;2023-02-20T03:42:51;98585.63;;;9.31;94.87
21980;BME280;11154;48.558;9.234;2023-02-20T03:45:12;98584.91;;;9.29;94.71
21980;BME280;11154;48.558;9.234;2023-02-20T03:47:17;98587.69;;;9.27;94.61
21980;BME280;11154;48.558;9.234;2023-02-20T03:49:22;98586.00;;;9.26;94.99
21980;BME280;11154;48.558;9.234;2023-02-20T03:51:26;98575.66;;;9.23;94.32
21980;BME280;11154;48.558;9.234;2023-02-20T03:53:27;98577.72;;;9.20;94.21
21980;BME280;11154;48.558;9.234;2023-02-20T03:55:29;98565.66;;;9.16;94.03
21980;BME280;11154;48.558;9.234;2023-02-20T03:57:33;98556.28;;;9.12;94.15
21980;BME280;11154;48.558;9.234;2023-02-20T03:59:41;98561.13;;;9.07;94.29
21980;BME280;11154;48.558;9.234;2023-02-20T04:01:47;98606.50;;;9.76;91.97
21980;BME280;11154;48.558;9.234;2023-02-20T04:03:50;98607.03;;;10.10;88.63
21980;BME280;11154;48.558;9.234;2023-02-20T04:05:54;98607.94;;;10.30;86.34
21980;BME280;11154;48.558;9.234;2023-02-20T04:08:01;98629.19;;;10.50;84.89
21980;BME280;11154;48.558;9.234;2023-02-20T04:10:06;98625.31;;;10.64;82.96
21980;BME280;11154;48.558;9.234;2023-02-20T04:12:15;98616.53;;;10.73;82.14
21980;BME280;11154;48.558;9.234;2023-02-20T04:14:20;98617.94;;;10.77;81.48
21980;BME280;11154;48.558;9.234;2023-02-20T04:16:24;98610.94;;;10.85;81.17
21980;BME280;11154;48.558;9.234;2023-02-20T04:18:27;98609.44;;;10.92;80.16
21980;BME280;11154;48.558;9.234;2023-02-20T04:20:29;98609.00;;;10.96;79.57
21980;BME280;11154;48.558;9.234;2023-02-20T04:22:35;98611.53;;;10.98;79.38
21980;BME280;11154;48.558;9.234;2023-02-20T04:24:41;98607.06;;;10.98;79.04
21980;BME280;11154;48.558;9.234;2023-02-20T04:26:45;98607.75;;;11.00;78.62
21980;BME280;11154;48.558;9.234;2023-02-20T04:28:48;98602.44;;;11.00;78.25
21980;BME280;11154;48.558;9.234;2023-02-20T04:30:50;98598.94;;;11.00;78.29
21980;BME280;11154;48.558;9.234;2023-02-20T04:32:54;98599.78;;;11.00;78.00
21980;BME280;11154;48.558;9.234;2023-02-20T04:34:55;98598.78;;;11.01;77.85
21980;BME280;11154;48.558;9.234;2023-02-20T04:37:05;98600.47;;;11.02;78.07
21980;BME280;11154;48.558;9.234;2023-02-20T04:39:07;98602.31;;;11.02;77.57
21980;BME280;11154;48.558;9.234;2023-02-20T04:41:09;98604.13;;;11.01;77.51
21980;BME280;11154;48.558;9.234;2023-02-20T04:43:11;98594.44;;;11.00;77.40
21980;BME280;11154;48.558;9.234;2023-02-20T04:45:12;98587.47;;;10.99;76.80
21980;BME280;11154;48.558;9.234;2023-02-20T04:47:16;98581.28;;;10.99;76.87
21980;BME280;11154;48.558;9.234;2023-02-20T04:49:20;98587.47;;;10.99;76.85
21980;BME280;11154;48.558;9.234;2023-02-20T04:51:21;98585.50;;;11.01;76.43
21980;BME280;11154;48.558;9.234;2023-02-20T04:53:23;98581.84;;;11.02;75.96
21980;BME280;11154;48.558;9.234;2023-02-20T04:55:25;98586.34;;;11.02;76.56
21980;BME280;11154;48.558;9.234;2023-02-20T04:57:27;98573.44;;;10.97;75.98
21980;BME280;11154;48.558;9.234;2023-02-20T04:59:28;98572.59;;;10.97;76.16
21980;BME280;11154;48.558;9.234;2023-02-20T05:01:30;98583.13;;;10.98;76.46
21980;BME280;11154;48.558;9.234;2023-02-20T05:03:32;98574.84;;;11.01;76.02
21980;BME280;11154;48.558;9.234;2023-02-20T05:05:35;98573.88;;;11.02;75.76
21980;BME280;11154;48.558;9.234;2023-02-20T05:07:36;98576.38;;;11.04;75.45
21980;BME280;11154;48.558;9.234;2023-02-20T05:09:41;98568.28;;;11.05;74.65
21980;BME280;11154;48.558;9.234;2023-02-20T05:11:43;98573.59;;;11.05;74.96
21980;BME280;11154;48.558;9.234;2023-02-20T05:13:44;98586.34;;;11.02;73.95
21980;BME280;11154;48.558;9.234;2023-02-20T05:15:46;98588.16;;;11.01;74.38
21980;BME280;11154;48.558;9.234;2023-02-20T05:17:48;98584.91;;;10.98;74.52
21980;BME280;11154;48.558;9.234;2023-02-20T05:19:49;98589.00;;;10.92;74.43
21980;BME280;11154;48.558;9.234;2023-02-20T05:21:52;98601.44;;;10.92;75.00
21980;BME280;11154;48.558;9.234;2023-02-20T05:24:11;98603.53;;;10.88;75.22
21980;BME280;11154;48.558;9.234;2023-02-20T05:26:17;98598.50;;;10.85;75.16
21980;BME280;11154;48.558;9.234;2023-02-20T05:28:19;98608.44;;;10.83;74.53
21980;BME280;11154;48.558;9.234;2023-02-20T05:30:21;98591.31;;;10.77;74.25
21980;BME280;11154;48.558;9.234;2023-02-20T05:32:24;98595.25;;;10.73;73.83
21980;BME280;11154;48.558;9.234;2023-02-20T05:34:26;98590.00;;;10.62;71.94
21980;BME280;11154;48.558;9.234;2023-02-20T05:36:28;98592.25;;;10.57;74.29
21980;BME280;11154;48.558;9.234;2023-02-20T05:38:30;98589.72;;;10.55;74.20
21980;BME280;11154;48.558;9.234;2023-02-20T05:40:32;98593.66;;;10.51;74.89
21980;BME280;11154;48.558;9.234;2023-02-20T05:42:34;98583.13;;;10.50;75.20
21980;BME280;11154;48.558;9.234;2023-02-20T05:44:35;98589.94;;;10.43;74.36
21980;BME280;11154;48.558;9.234;2023-02-20T05:46:38;98588.97;;;10.44;74.96
21980;BME280;11154;48.558;9.234;2023-02-20T05:48:40;98580.84;;;10.36;74.18
21980;BME280;11154;48.558;9.234;2023-02-20T05:50:42;98585.47;;;10.34;74.04
21980;BME280;11154;48.558;9.234;2023-02-20T05:52:44;98580.16;;;10.34;74.52
21980;BME280;11154;48.558;9.234;2023-02-20T05:54:47;98581.94;;;10.33;74.81
21980;BME280;11154;48.558;9.234;2023-02-20T05:56:49;98578.44;;;10.33;74.67
21980;BME280;11154;48.558;9.234;2023-02-20T05:58:51;98580.31;;;10.42;74.52
21980;BME280;11154;48.558;9.234;2023-02-20T06:00:53;98582.69;;;10.45;74.15
21980;BME280;11154;48.558;9.234;2023-02-20T06:02:55;98586.06;;;10.47;74.41
21980;BME280;11154;48.558;9.234;2023-02-20T06:04:56;98584.13;;;10.49;73.52
21980;BME280;11154;48.558;9.234;2023-02-20T06:06:58;98576.16;;;10.49;73.80
21980;BME280;11154;48.558;9.234;2023-02-20T06:09:00;98587.22;;;10.54;74.34
21980;BME280;11154;48.558;9.234;2023-02-20T06:11:03;98589.94;;;10.73;80.25
21980;BME280;11154;48.558;9.234;2023-02-20T06:13:05;98591.03;;;10.70;76.30
21980;BME280;11154;48.558;9.234;2023-02-20T06:15:07;98594.94;;;10.66;74.26
21980;BME280;11154;48.558;9.234;2023-02-20T06:17:09;98596.75;;;10.66;73.35
21980;BME280;11154;48.558;9.234;2023-02-20T06:19:10;98591.03;;;10.61;72.45
21980;BME280;11154;48.558;9.234;2023-02-20T06:21:12;98595.63;;;10.59;72.30
21980;BME280;11154;48.558;9.234;2023-02-20T06:23:13;98603.28;;;10.52;72.58
21980;BME280;11154;48.558;9.234;2023-02-20T06:25:15;98596.03;;;10.54;72.86
21980;BME280;11154;48.558;9.234;2023-02-20T06:27:18;98598.53;;;10.56;71.94
21980;BME280;11154;48.558;9.234;2023-02-20T06:29:20;98596.88;;;10.55;72.01
21980;BME280;11154;48.558;9.234;2023-02-20T06:31:24;98597.97;;;10.52;71.90
21980;BME280;11154;48.558;9.234;2023-02-20T06:33:26;98600.50;;;10.54;72.78
21980;BME280;11154;48.558;9.234;2023-02-20T06:35:28;98602.19;;;10.55;72.79
21980;BME280;11154;48.558;9.234;2023-02-20T06:37:29;98604.72;;;10.56;72.56
21980;BME280;11154;48.558;9.234;2023-02-20T06:39:32;98603.47;;;10.60;72.62
21980;BME280;11154;48.558;9.234;2023-02-20T06:41:34;98612.28;;;10.61;72.41
21980;BME280;11154;48.558;9.234;2023-02-20T06:43:37;98606.53;;;10.65;72.59
21980;BME280;11154;48.558;9.234;2023-02-20T06:45:39;98618.03;;;10.66;71.61
21980;BME280;11154;48.558;9.234;2023-02-20T06:47:41;98614.53;;;10.65;71.24
21980;BME280;11154;48.558;9.234;2023-02-20T06:49:42;98615.63;;;10.63;72.05
21980;BME280;11154;48.558;9.234;2023-02-20T06:51:44;98613.25;;;10.60;72.00
21980;BME280;11154;48.558;9.234;2023-02-20T06:53:46;98616.91;;;10.59;72.31
21980;BME280;11154;48.558;9.234;2023-02-20T06:55:49;98603.84;;;10.56;72.46
21980;BME280;11154;48.558;9.234;2023-02-20T06:57:50;98617.88;;;10.58;73.02
21980;BME280;11154;48.558;9.234;2023-02-20T06:59:53;98607.09;;;10.59;72.82
21980;BME280;11154;48.558;9.234;2023-02-20T07:01:55;98610.31;;;10.63;72.79
21980;BME280;11154;48.558;9.234;2023-02-20T07:03:58;98613.84;;;10.63;72.29
21980;BME280;11154;48.558;9.234;2023-02-20T07:05:59;98620.97;;;10.63;72.32
21980;BME280;11154;48.558;9.234;2023-02-20T07:08:01;98633.69;;;10.98;72.13
21980;BME280;11154;48.558;9.234;2023-02-20T07:10:03;98638.28;;;10.96;70.77
21980;BME280;11154;48.558;9.234;2023-02-20T07:12:06;98636.44;;;10.87;71.28
21980;BME280;11154;48.558;9.234;2023-02-20T07:14:08;98626.91;;;10.85;71.29
21980;BME280;11154;48.558;9.234;2023-02-20T07:16:11;98628.44;;;10.78;71.60
21980;BME280;11154;48.558;9.234;2023-02-20T07:18:13;98635.97;;;10.73;71.83
21980;BME280;11154;48.558;9.234;2023-02-20T07:20:16;98643.53;;;10.68;71.82
21980;BME280;11154;48.558;9.234;2023-02-20T07:22:18;98647.72;;;10.71;72.06
21980;BME280;11154;48.558;9.234;2023-02-20T07:24:19;98648.03;;;10.68;72.04
21980;BME280;11154;48.558;9.234;2023-02-20T07:26:23;98641.00;;;10.67;72.04
21980;BME280;11154;48.558;9.234;2023-02-20T07:28:24;98636.66;;;10.66;72.14
21980;BME280;11154;48.558;9.234;2023-02-20T07:30:26;98639.75;;;10.71;72.32
21980;BME280;11154;48.558;9.234;2023-02-20T07:32:29;98635.00;;;10.74;71.77
21980;BME280;11154;48.558;9.234;2023-02-20T07:34:31;98640.19;;;10.76;71.98
21980;BME280;11154;48.558;9.234;2023-02-20T07:36:33;98637.13;;;10.80;71.37
21980;BME280;11154;48.558;9.234;2023-02-20T07:38:34;98640.34;;;10.83;71.18
21980;BME280;11154;48.558;9.234;2023-02-20T07:40:36;98642.63;;;10.88;71.41
21980;BME280;11154;48.558;9.234;2023-02-20T07:42:37;98637.88;;;10.91;71.15
21980;BME280;11154;48.558;9.234;2023-02-20T07:44:39;98634.09;;;10.94;70.70
21980;BME280;11154;48.558;9.234;2023-02-20T07:46:41;98635.78;;;10.95;70.64
21980;BME280;11154;48.558;9.234;2023-02-20T07:48:44;98632.97;;;10.96;71.12
21980;BME280;11154;48.558;9.234;2023-02-20T07:50:45;98626.69;;;10.97;71.28
21980;BME280;11154;48.558;9.234;2023-02-20T07:52:47;98639.13;;;10.97;70.86
21980;BME280;11154;48.558;9.234;2023-02-20T07:54:49;98644.31;;;10.98;70.68
21980;BME280;11154;48.558;9.234;2023-02-20T07:56:50;98637.03;;;11.00;71.50
21980;BME280;11154;48.558;9.234;2023-02-20T07:58:52;98641.81;;;11.06;71.27
21980;BME280;11154;48.558;9.234;2023-02-20T08:00:53;98636.94;;;11.11;71.10
21980;BME280;11154;48.558;9.234;2023-02-20T08:02:55;98636.63;;;11.14;70.74
21980;BME280;11154;48.558;9.234;2023-02-20T08:05:00;98634.28;;;11.21;71.06
21980;BME280;11154;48.558;9.234;2023-02-20T08:07:01;98629.78;;;11.21;71.24
21980;BME280;11154;48.558;9.234;2023-02-20T08:09:06;98625.84;;;11.25;72.10
21980;BME280;11154;48.558;9.234;2023-02-20T08:11:07;98630.50;;;11.33;72.11
21980;BME280;11154;48.558;9.234;2023-02-20T08:13:09;98624.06;;;11.35;71.97
21980;BME280;11154;48.558;9.234;2023-02-20T08:15:11;98622.22;;;11.36;72.46
21980;BME280;11154;48.558;9.234;2023-02-20T08:17:12;98622.78;;;11.39;72.71
21980;BME280;11154;48.558;9.234;2023-02-20T08:19:14;98614.13;;;11.37;73.19
21980;BME280;11154;48.558;9.234;2023-02-20T08:21:17;98611.31;;;11.39;73.92
21980;BME280;11154;48.558;9.234;2023-02-20T08:23:20;98602.34;;;11.40;74.18
21980;BME280;11154;48.558;9.234;2023-02-20T08:25:22;98607.53;;;11.41;74.47
21980;BME280;11154;48.558;9.234;2023-02-20T08:27:24;98599.28;;;11.44;74.45
21980;BME280;11154;48.558;9.234;2023-02-20T08:29:26;98594.19;;;11.50;74.45
21980;BME280;11154;48.558;9.234;2023-02-20T08:31:28;98600.94;;;11.54;74.58
21980;BME280;11154;48.558;9.234;2023-02-20T08:33:30;98591.41;;;11.61;74.04
21980;BME280;11154;48.558;9.234;2023-02-20T08:35:31;98591.72;;;11.68;73.58
21980;BME280;11154;48.558;9.234;2023-02-20T08:37:35;98586.63;;;11.74;72.94
21980;BME280;11154;48.558;9.234;2023-02-20T08:39:36;98584.94;;;11.83;72.12
21980;BME280;11154;48.558;9.234;2023-02-20T08:41:41;98581.25;;;11.93;71.60
21980;BME280;11154;48.558;9.234;2023-02-20T08:43:43;98577.19;;;11.99;70.54
21980;BME280;11154;48.558;9.234;2023-02-20T08:45:45;98579.00;;;12.08;69.31
21980;BME280;11154;48.558;9.234;2023-02-20T08:47:46;98576.03;;;12.11;68.63
21980;BME280;11154;48.558;9.234;2023-02-20T08:49:48;98568.56;;;12.23;68.16
21980;BME280;11154;48.558;9.234;2023-02-20T08:51:53;98574.66;;;12.33;67.39
21980;BME280;11154;48.558;9.234;2023-02-20T08:53:56;98577.31;;;12.43;67.02
21980;BME280;11154;48.558;9.234;2023-02-20T08:55:58;98575.59;;;12.51;66.65
21980;BME280;11154;48.558;9.234;2023-02-20T08:57:59;98573.16;;;12.58;66.98
21980;BME280;11154;48.558;9.234;2023-02-20T09:00:04;98568.63;;;12.68;67.98
21980;BME280;11154;48.558;9.234;2023-02-20T09:02:06;98571.69;;;12.73;68.70
21980;BME280;11154;48.558;9.234;2023-02-20T09:04:09;98559.88;;;12.75;68.51
21980;BME280;11154;48.558;9.234;2023-02-20T09:06:11;98560.41;;;12.79;68.82
21980;BME280;11154;48.558;9.234;2023-02-20T09:08:12;98562.47;;;12.85;67.05
21980;BME280;11154;48.558;9.234;2023-02-20T09:10:16;98559.97;;;12.83;67.42
21980;BME280;11154;48.558;9.234;2023-02-20T09:12:18;98558.84;;;12.86;68.65
21980;BME280;11154;48.558;9.234;2023-02-20T09:14:20;98563.06;;;12.88;67.90
21980;BME280;11154;48.558;9.234;2023-02-20T09:16:23;98551.25;;;12.91;67.47
21980;BME280;11154;48.558;9.234;2023-02-20T09:18:25;98554.13;;;12.97;67.77
21980;BME280;11154;48.558;9.234;2023-02-20T09:20:26;98560.53;;;13.04;66.81
21980;BME280;11154;48.558;9.234;2023-02-20T09:22:28;98552.41;;;13.05;67.63
21980;BME280;11154;48.558;9.234;2023-02-20T09:24:30;98551.81;;;13.11;67.52
21980;BME280;11154;48.558;9.234;2023-02-20T09:26:34;98539.97;;;13.14;68.15
21980;BME280;11154;48.558;9.234;2023-02-20T09:28:36;98545.97;;;13.16;67.04
21980;BME280;11154;48.558;9.234;2023-02-20T09:30:38;98540.13;;;13.12;66.92
21980;BME280;11154;48.558;9.234;2023-02-20T09:32:39;98536.00;;;13.18;66.92
21980;BME280;11154;48.558;9.234;2023-02-20T09:34:41;98536.69;;;13.20;65.57
21980;BME280;11154;48.558;9.234;2023-02-20T09:36:44;98545.78;;;13.27;66.50
21980;BME280;11154;48.558;9.234;2023-02-20T09:38:45;98542.66;;;13.31;65.84
21980;BME280;11154;48.558;9.234;2023-02-20T09:40:49;98553.88;;;13.35;64.86
21980;BME280;11154;48.558;9.234;2023-02-20T09:43:06;98545.38;;;13.39;65.35
21980;BME280;11154;48.558;9.234;2023-02-20T09:45:17;98538.88;;;13.42;63.80
21980;BME280;11154;48.558;9.234;2023-02-20T09:47:29;98532.88;;;13.40;62.84
21980;BME280;11154;48.558;9.234;2023-02-20T09:49:34;98539.72;;;13.42;62.50
21980;BME280;11154;48.558;9.234;2023-02-20T09:51:41;98530.56;;;13.45;60.64
21980;BME280;11154;48.558;9.234;2023-02-20T09:53:51;98538.25;;;13.48;60.26
21980;BME280;11154;48.558;9.234;2023-02-20T09:55:55;98517.13;;;13.19;61.43
21980;BME280;11154;48.558;9.234;2023-02-20T09:58:02;98516.84;;;13.05;63.34
21980;BME280;11154;48.558;9.234;2023-02-20T10:00:07;98514.78;;;12.99;63.44
21980;BME280;11154;48.558;9.234;2023-02-20T10:02:14;98519.41;;;12.97;61.99
21980;BME280;11154;48.558;9.234;2023-02-20T10:04:20;98526.00;;;13.02;64.15
21980;BME280;11154;48.558;9.234;2023-02-20T10:06:24;98514.16;;;13.05;62.83
21980;BME280;11154;48.558;9.234;2023-02-20T10:08:25;98518.53;;;13.06;61.81
21980;BME280;11154;48.558;9.234;2023-02-20T10:10:30;98518.59;;;13.14;63.81
21980;BME280;11154;48.558;9.234;2023-02-20T10:12:37;98525.84;;;13.21;62.28
21980;BME280;11154;48.558;9.234;2023-02-20T10:15:13;98511.72;;;13.29;62.26
21980;BME280;11154;48.558;9.234;2023-02-20T10:17:25;98506.97;;;13.40;61.47
21980;BME280;11154;48.558;9.234;2023-02-20T10:19:34;98509.25;;;13.53;61.30
21980;BME280;11154;48.558;9.234;2023-02-20T10:21:46;98508.31;;;13.62;61.16
21980;BME280;11154;48.558;9.234;2023-02-20T10:23:51;98494.28;;;13.60;59.65
21980;BME280;11154;48.558;9.234;2023-02-20T10:25:56;98511.47;;;13.82;60.25
21980;BME280;11154;48.558;9.234;2023-02-20T10:28:03;98507.22;;;13.97;57.71
21980;BME280;11154;48.558;9.234;2023-02-20T10:30:09;98516.13;;;14.06;59.02
21980;BME280;11154;48.558;9.234;2023-02-20T10:32:15;98514.84;;;14.10;59.20
21980;BME280;11154;48.558;9.234;2023-02-20T10:34:24;98513.66;;;14.12;58.57
21980;BME280;11154;48.558;9.234;2023-02-20T10:36:33;98512.38;;;14.16;58.79
21980;BME280;11154;48.558;9.234;2023-02-20T10:38:40;98508.94;;;14.06;57.01
21980;BME280;11154;48.558;9.234;2023-02-20T10:40:46;98503.28;;;14.09;57.89
21980;BME280;11154;48.558;9.234;2023-02-20T10:42:53;98509.69;;;14.16;57.58
21980;BME280;11154;48.558;9.234;2023-02-20T10:45:02;98511.78;;;14.30;57.96
21980;BME280;11154;48.558;9.234;2023-02-20T10:47:15;98505.56;;;14.30;56.65
21980;BME280;11154;48.558;9.234;2023-02-20T10:49:23;98504.09;;;14.35;56.55
21980;BME280;11154;48.558;9.234;2023-02-20T10:51:31;98509.00;;;14.47;56.52
21980;BME280;11154;48.558;9.234;2023-02-20T10:53:39;98503.13;;;14.44;55.04
21980;BME280;11154;48.558;9.234;2023-02-20T10:55:49;98491.75;;;14.50;55.61
21980;BME280;11154;48.558;9.234;2023-02-20T10:57:56;98489.09;;;14.42;54.50
21980;BME280;11154;48.558;9.234;2023-02-20T11:00:04;98488.56;;;14.39;55.50
21980;BME280;11154;48.558;9.234;2023-02-20T11:02:16;98489.09;;;14.42;56.97
21980;BME280;11154;48.558;9.234;2023-02-20T11:04:20;98486.94;;;14.45;57.84
21980;BME280;11154;48.558;9.234;2023-02-20T11:06:28;98480.53;;;14.46;57.19
21980;BME280;11154;48.558;9.234;2023-02-20T11:08:30;98477.22;;;14.52;56.38